createdAt,value
2023-04-19T00:02:28.969Z,16.70
2023-04-19T00:17:34.411Z,16.50
2023-04-19T00:32:39.009Z,16.40
2023-04-19T00:47:43.763Z,16.40
2023-04-19T01:02:49.815Z,16.20
2023-04-19T01:17:57.380Z,16.30
2023-04-19T01:33:01.924Z,16.20
2023-04-19T01:48:08.273Z,16.20
2023-04-19T02:03:13.128Z,16.00
2023-04-19T02:18:18.376Z,16.00
2023-04-19T02:33:24.029Z,15.90
2023-04-19T02:48:28.521Z,15.80
2023-04-19T03:03:33.191Z,15.70
2023-04-19T03:18:37.966Z,15.60
2023-04-19T03:33:43.577Z,15.40
2023-04-19T03:48:50.258Z,15.60
2023-04-19T04:03:56.704Z,15.50
2023-04-19T04:19:02.264Z,15.30
2023-04-19T04:34:10.129Z,15.20
2023-04-19T04:49:22.623Z,15.20
2023-04-19T05:04:27.566Z,15.20
2023-04-19T05:19:32.148Z,15.20
2023-04-19T05:34:44.060Z,15.10
2023-04-19T05:49:52.220Z,15.00
2023-04-19T06:05:09.727Z,14.90
2023-04-19T06:20:14.935Z,15.10
2023-04-19T06:35:19.830Z,15.10
2023-04-19T06:50:24.624Z,15.10
2023-04-19T07:05:29.257Z,15.30
2023-04-19T07:20:33.730Z,15.60
2023-04-19T07:35:40.274Z,15.50
2023-04-19T07:50:44.795Z,15.70
2023-04-19T08:05:49.415Z,15.80
2023-04-19T08:20:53.900Z,15.70
2023-04-19T08:35:58.409Z,15.70
2023-04-19T08:51:05.369Z,16.10
2023-04-19T09:06:12.005Z,16.10
2023-04-19T09:21:28.944Z,16.30
2023-04-19T09:36:34.667Z,16.60
2023-04-19T09:51:43.687Z,16.60
2023-04-19T10:07:14.017Z,16.70
2023-04-19T10:22:16.523Z,17.10
2023-04-19T10:37:24.598Z,17.40
2023-04-19T10:52:30.586Z,17.60
2023-04-19T11:07:40.891Z,17.80
2023-04-19T11:22:47.476Z,18.00
2023-04-19T11:37:52.666Z,18.30
2023-04-19T11:52:57.200Z,18.40
2023-04-19T12:08:06.639Z,18.70
2023-04-19T12:23:13.860Z,19.00
2023-04-19T12:38:18.327Z,19.20
2023-04-19T12:53:24.253Z,19.60
2023-04-19T13:23:38.444Z,20.40
2023-04-19T13:38:42.865Z,21.20
2023-04-19T13:53:47.426Z,21.90
2023-04-19T14:08:51.884Z,24.70
2023-04-19T14:23:56.931Z,27.90
2023-04-19T14:39:01.572Z,28.30
2023-04-19T14:54:05.990Z,29.40
2023-04-19T15:09:10.830Z,30.00
2023-04-19T15:24:15.368Z,31.70
2023-04-19T15:39:19.819Z,29.70
2023-04-19T15:54:24.243Z,28.40
2023-04-19T16:09:28.649Z,27.30
2023-04-19T16:24:33.208Z,26.20
2023-04-19T16:39:37.620Z,24.60
2023-04-19T16:54:43.594Z,23.30
2023-04-19T17:09:48.079Z,22.30
2023-04-19T17:24:54.182Z,21.80
2023-04-19T17:39:58.655Z,21.30
2023-04-19T17:55:04.585Z,21.90
2023-04-19T18:10:10.186Z,22.30
2023-04-19T18:25:14.806Z,22.00
2023-04-19T18:40:19.588Z,21.20
2023-04-19T18:55:24.143Z,20.70
2023-04-19T19:10:48.506Z,20.50
2023-04-19T19:25:53.345Z,20.40
2023-04-19T19:56:13.028Z,20.30
2023-04-19T20:11:23.537Z,20.20
2023-04-19T20:26:28.191Z,20.10
2023-04-19T20:41:32.737Z,20.00
2023-04-19T20:56:37.196Z,19.90
2023-04-19T21:11:41.686Z,19.80
2023-04-19T21:26:46.069Z,19.40
2023-04-19T21:41:50.543Z,19.20
2023-04-19T21:56:55.053Z,18.90
2023-04-19T22:12:00.051Z,18.90
2023-04-19T22:27:04.811Z,18.60
2023-04-19T22:42:09.506Z,18.50
2023-04-19T22:57:14.056Z,18.40
2023-04-19T23:12:18.503Z,18.20
2023-04-19T23:27:23.199Z,18.20
2023-04-19T23:42:27.641Z,18.10
2023-04-19T23:57:34.961Z,18.00
